createdAt,value
2022-08-22T00:01:20.573Z,98964.97
2022-08-22T00:10:25.448Z,98960.34
2022-08-22T00:22:17.261Z,98964.41
2022-08-22T00:24:56.002Z,98956.59
2022-08-22T00:27:27.305Z,98962.81
2022-08-22T00:32:57.052Z,98958.75
2022-08-22T00:35:30.022Z,98947.13
2022-08-22T00:38:04.427Z,98953.34
2022-08-22T00:46:35.729Z,98949.06
2022-08-22T01:01:07.733Z,98934.19
2022-08-22T01:15:42.668Z,98929.06
2022-08-22T01:18:17.384Z,98930.13
2022-08-22T01:42:12.633Z,98907.44
2022-08-22T01:50:58.613Z,98893.69
2022-08-22T03:05:28.902Z,98869.31
2022-08-22T07:33:43.991Z,98975.22
2022-08-22T07:36:22.600Z,98985.22
2022-08-22T07:39:02.398Z,98981.13
2022-08-22T07:41:59.655Z,98978.97
2022-08-22T07:44:32.929Z,98966.78
2022-08-22T07:47:09.170Z,98961.59
2022-08-22T07:50:04.901Z,98962.94
2022-08-22T07:52:38.321Z,98956.72
2022-08-22T07:55:16.417Z,98955.03
2022-08-22T07:57:46.039Z,98958.75
2022-08-22T08:00:17.052Z,98967.59
2022-08-22T08:02:50.843Z,98967.28
2022-08-22T08:05:19.712Z,98970.53
2022-08-22T08:07:47.900Z,98970.91
2022-08-22T08:10:23.985Z,98973.09
2022-08-22T08:13:01.974Z,98963.72
2022-08-22T08:15:31.867Z,98965.63
2022-08-22T08:18:03.780Z,98966.38
2022-08-22T08:20:30.963Z,98970.47
2022-08-22T08:22:58.345Z,98970.75
2022-08-22T08:25:29.862Z,98979.28
2022-08-22T08:31:48.331Z,98973.31
2022-08-22T08:34:24.399Z,98976.53
2022-08-22T08:36:54.981Z,98971.28
2022-08-22T08:39:48.547Z,98976.69
2022-08-22T08:43:09.042Z,98966.81
2022-08-22T08:54:21.155Z,98982.16
2022-08-22T08:56:55.434Z,98984.47
2022-08-22T08:59:28.150Z,98982.22
2022-08-22T09:02:25.843Z,98988.47
2022-08-22T09:05:29.513Z,98980.16
2022-08-22T09:08:01.949Z,98992.00
2022-08-22T09:10:50.814Z,98991.66
2022-08-22T09:16:52.616Z,98988.94
2022-08-22T09:19:43.717Z,98992.66
2022-08-22T09:22:26.109Z,98992.31
2022-08-22T09:25:09.261Z,98991.22
2022-08-22T09:27:45.917Z,98988.13
2022-08-22T09:30:15.558Z,99002.88
2022-08-22T09:33:10.018Z,98995.44
2022-08-22T09:36:12.213Z,98995.50
2022-08-22T09:39:05.907Z,98994.00
2022-08-22T09:41:41.597Z,98996.31
2022-08-22T09:44:26.384Z,99004.31
2022-08-22T09:47:08.983Z,98998.72
2022-08-22T09:50:10.253Z,98997.78
2022-08-22T09:55:51.443Z,98997.22
2022-08-22T09:58:40.765Z,98999.91
2022-08-22T10:01:53.441Z,99003.78
2022-08-22T10:04:39.582Z,99008.41
2022-08-22T10:07:26.861Z,99006.22
2022-08-22T10:10:00.924Z,99002.25
2022-08-22T10:12:36.280Z,98999.94
2022-08-22T10:15:12.458Z,99004.84
2022-08-22T10:17:57.430Z,98997.91
2022-08-22T10:20:28.967Z,99002.88
2022-08-22T10:23:21.683Z,99001.31
2022-08-22T10:25:53.653Z,99003.06
2022-08-22T10:28:39.513Z,99013.75
2022-08-22T10:31:09.165Z,99008.56
2022-08-22T10:34:11.146Z,99001.69
2022-08-22T10:36:50.738Z,99006.59
2022-08-22T10:39:23.313Z,99013.31
2022-08-22T10:42:23.282Z,99013.34
2022-08-22T10:45:08.376Z,99004.03
2022-08-22T10:47:57.310Z,99014.97
2022-08-22T10:50:31.803Z,99000.91
2022-08-22T10:53:30.989Z,98998.66
2022-08-22T10:56:06.331Z,99004.53
2022-08-22T10:58:40.821Z,99006.41
2022-08-22T11:01:37.645Z,98998.44
2022-08-22T11:04:05.612Z,99007.66
2022-08-22T11:06:56.210Z,99007.13
2022-08-22T11:09:40.565Z,99001.16
2022-08-22T11:12:26.633Z,98994.16
2022-08-22T11:15:10.080Z,99005.16
2022-08-22T11:17:53.859Z,99008.69
2022-08-22T11:20:37.222Z,99006.03
2022-08-22T11:23:12.456Z,99018.16
2022-08-22T11:25:53.903Z,99014.03
2022-08-22T11:28:23.395Z,99015.59
2022-08-22T11:31:23.959Z,99000.59
2022-08-22T11:33:55.550Z,99014.56
2022-08-22T11:36:31.467Z,99022.66
2022-08-22T11:39:06.564Z,99019.22
2022-08-22T11:41:54.046Z,99018.59
2022-08-22T11:47:26.556Z,99023.69
2022-08-22T11:50:03.812Z,99022.94
2022-08-22T11:55:47.054Z,99024.94
2022-08-22T11:58:29.623Z,99022.69
2022-08-22T12:01:14.915Z,99025.50
2022-08-22T12:07:02.420Z,99022.69
2022-08-22T12:09:41.596Z,99033.28
2022-08-22T12:12:48.300Z,99031.03
2022-08-22T12:15:40.412Z,99031.41
2022-08-22T12:18:35.097Z,99026.41
2022-08-22T12:21:38.524Z,99029.94
2022-08-22T12:24:19.269Z,99029.78
2022-08-22T12:27:02.278Z,99024.78
2022-08-22T12:29:56.345Z,99032.34
2022-08-22T12:32:45.838Z,99037.56
2022-08-22T12:35:15.582Z,99030.56
2022-08-22T12:37:54.307Z,99025.53
2022-08-22T12:40:28.496Z,99021.66
2022-08-22T12:43:12.698Z,99030.09
2022-08-22T12:46:12.941Z,99020.78
2022-08-22T12:48:55.178Z,99031.97
2022-08-22T12:51:34.460Z,99032.59
2022-08-22T12:54:16.004Z,99033.97
2022-08-22T12:57:01.322Z,99030.97
2022-08-22T12:59:31.930Z,99025.63
2022-08-22T13:02:12.835Z,99035.09
2022-08-22T13:04:46.161Z,99035.16
2022-08-22T13:07:37.485Z,99038.75
2022-08-22T13:10:17.373Z,99036.94
2022-08-22T13:12:47.021Z,99033.38
2022-08-22T13:15:25.784Z,99040.97
2022-08-22T13:17:53.242Z,99036.22
2022-08-22T13:20:32.428Z,99025.56
2022-08-22T13:23:00.906Z,99032.84
2022-08-22T13:25:30.058Z,99036.13
2022-08-22T13:27:59.961Z,99035.53
2022-08-22T13:30:31.985Z,99038.47
2022-08-22T13:33:04.399Z,99045.44
2022-08-22T13:35:44.834Z,99048.84
2022-08-22T13:38:26.554Z,99047.59
2022-08-22T13:40:56.058Z,99043.22
2022-08-22T13:43:27.679Z,99048.97
2022-08-22T13:45:59.226Z,99044.69
2022-08-22T13:48:49.657Z,99037.78
2022-08-22T13:51:40.215Z,99030.53
2022-08-22T13:54:15.763Z,99030.13
2022-08-22T13:56:53.095Z,99029.69
2022-08-22T13:59:49.548Z,99039.75
2022-08-22T14:02:30.889Z,99043.16
2022-08-22T14:05:04.895Z,99026.47
2022-08-22T14:07:53.020Z,99044.13
2022-08-22T14:10:26.868Z,99039.63
2022-08-22T14:12:57.438Z,99034.22
2022-08-22T14:15:45.824Z,99026.81
2022-08-22T14:18:18.708Z,99025.19
2022-08-22T14:20:47.658Z,99027.72
2022-08-22T14:23:29.170Z,99031.47
2022-08-22T14:25:56.358Z,99022.53
2022-08-22T14:28:30.831Z,99035.59
2022-08-22T14:31:02.522Z,99033.97
2022-08-22T14:33:51.796Z,99025.53
2022-08-22T14:36:45.783Z,99034.66
2022-08-22T14:39:31.083Z,99032.91
2022-08-22T14:42:12.917Z,99036.25
2022-08-22T14:44:57.048Z,99036.72
2022-08-22T14:47:54.397Z,99046.38
2022-08-22T14:50:36.577Z,99051.03
2022-08-22T14:53:25.312Z,99047.28
2022-08-22T14:56:15.568Z,99048.16
2022-08-22T14:58:53.928Z,99044.91
2022-08-22T15:01:25.281Z,99054.44
2022-08-22T15:04:01.658Z,99058.28
2022-08-22T15:06:35.866Z,99059.13
2022-08-22T15:09:28.724Z,99057.31
2022-08-22T15:11:57.693Z,99044.03
2022-08-22T15:14:42.549Z,99043.75
2022-08-22T15:17:10.885Z,99050.88
2022-08-22T15:19:41.076Z,99051.09
2022-08-22T15:22:21.838Z,99043.75
2022-08-22T15:25:02.941Z,99056.38
2022-08-22T15:27:31.774Z,99052.88
2022-08-22T15:30:07.789Z,99050.97
2022-08-22T15:32:49.009Z,99059.16
2022-08-22T15:35:30.073Z,99051.78
2022-08-22T15:37:58.320Z,99055.63
2022-08-22T15:40:45.852Z,99049.38
2022-08-22T15:43:21.716Z,99048.59
2022-08-22T15:45:51.956Z,99039.66
2022-08-22T15:48:30.110Z,99042.91
2022-08-22T15:51:09.472Z,99049.38
2022-08-22T15:53:45.562Z,99046.09
2022-08-22T15:56:12.146Z,99045.22
2022-08-22T15:58:48.946Z,99033.53
2022-08-22T16:01:20.671Z,99034.00
2022-08-22T16:04:12.457Z,99031.06
2022-08-22T16:06:55.318Z,99036.47
2022-08-22T16:09:44.467Z,99035.72
2022-08-22T16:12:32.783Z,99039.22
2022-08-22T16:15:01.286Z,99036.53
2022-08-22T16:17:27.942Z,99027.84
2022-08-22T16:20:15.811Z,99034.13
2022-08-22T16:22:56.473Z,99038.75
2022-08-22T16:25:45.250Z,99035.72
2022-08-22T16:28:54.359Z,99036.59
2022-08-22T16:31:22.644Z,99035.31
2022-08-22T16:33:49.479Z,99040.94
2022-08-22T16:36:17.981Z,99037.78
2022-08-22T16:38:48.585Z,99033.97
2022-08-22T16:41:28.749Z,99042.06
2022-08-22T16:44:21.139Z,99040.47
2022-08-22T16:46:49.266Z,99035.81
2022-08-22T16:49:31.022Z,99044.53
2022-08-22T16:52:25.883Z,99036.94
2022-08-22T16:54:53.797Z,99042.34
2022-08-22T16:58:06.860Z,99035.88
2022-08-22T17:00:36.998Z,99044.03
2022-08-22T17:03:18.809Z,99044.59
2022-08-22T17:06:10.970Z,99062.16
2022-08-22T17:08:43.597Z,99064.06
2022-08-22T17:11:42.382Z,99062.97
2022-08-22T17:14:41.750Z,99058.38
2022-08-22T17:17:19.653Z,99070.06
2022-08-22T17:19:56.138Z,99067.09
2022-08-22T17:25:59.593Z,99071.72
2022-08-22T17:32:04.996Z,99074.44
2022-08-22T17:35:02.817Z,99069.28
2022-08-22T17:37:55.548Z,99072.00
2022-08-22T17:40:30.166Z,99074.16
2022-08-22T17:43:09.219Z,99073.34
2022-08-22T17:45:45.742Z,99074.97
2022-08-22T17:48:19.638Z,99079.81
2022-08-22T17:50:51.304Z,99081.47
2022-08-22T17:53:17.882Z,99085.53
2022-08-22T17:58:54.838Z,99084.94
2022-08-22T18:01:42.998Z,99086.84
2022-08-22T18:04:17.690Z,99088.47
2022-08-22T18:06:49.284Z,99088.22
2022-08-22T18:09:38.808Z,99093.88
2022-08-22T18:12:16.284Z,99091.72
2022-08-22T18:14:59.834Z,99093.09
2022-08-22T18:17:34.843Z,99102.53
2022-08-22T18:20:11.918Z,99098.19
2022-08-22T18:22:53.158Z,99100.91
2022-08-22T18:25:19.765Z,99100.66
2022-08-22T18:28:21.943Z,99098.75
2022-08-22T18:30:59.771Z,99101.19
2022-08-22T18:33:38.280Z,99098.22
2022-08-22T18:36:22.732Z,99105.50
2022-08-22T18:39:29.048Z,99101.75
2022-08-22T18:42:23.398Z,99103.63
2022-08-22T18:44:50.079Z,99091.19
2022-08-22T18:47:20.407Z,99096.06
2022-08-22T18:49:55.456Z,99084.69
2022-08-22T18:52:34.599Z,99100.38
2022-08-22T18:58:28.275Z,99091.47
2022-08-22T19:00:57.945Z,99098.22
2022-08-22T19:12:26.169Z,99103.91
2022-08-22T19:18:16.939Z,99090.94
2022-08-22T19:21:02.080Z,99089.56
2022-08-22T19:23:35.918Z,99087.69
2022-08-22T19:35:27.360Z,99092.81
2022-08-22T19:38:02.831Z,99099.31
2022-08-22T19:40:53.981Z,99099.81
2022-08-22T19:43:42.088Z,99097.69
2022-08-22T19:46:11.262Z,99096.31
2022-08-22T19:48:44.697Z,99101.47
2022-08-22T19:51:19.612Z,99100.09
2022-08-22T19:53:57.662Z,99102.53
2022-08-22T19:59:29.190Z,99097.69
2022-08-22T20:05:17.458Z,99101.47
2022-08-22T20:08:02.758Z,99101.47
2022-08-22T20:13:36.248Z,99091.22
2022-08-22T20:16:17.920Z,99089.84
2022-08-22T20:19:08.580Z,99094.44
2022-08-22T20:21:43.377Z,99100.09
2022-08-22T20:24:15.553Z,99097.94
2022-08-22T20:27:03.384Z,99094.19
2022-08-22T20:29:34.534Z,99098.50
2022-08-22T20:32:03.618Z,99093.34
2022-08-22T20:34:33.970Z,99092.03
2022-08-22T20:37:27.193Z,99098.22
2022-08-22T20:39:59.164Z,99096.59
2022-08-22T20:42:26.402Z,99083.88
2022-08-22T20:44:54.365Z,99088.47
2022-08-22T20:47:24.366Z,99089.88
2022-08-22T20:50:04.825Z,99088.22
2022-08-22T20:52:37.530Z,99083.88
2022-08-22T20:55:07.135Z,99089.31
2022-08-22T20:57:35.571Z,99084.47
2022-08-22T21:03:12.159Z,99086.88
2022-08-22T21:05:43.733Z,99085.50
2022-08-22T21:14:24.814Z,99077.13
2022-08-22T21:16:52.009Z,99073.63
2022-08-22T21:19:23.626Z,99074.97
2022-08-22T21:21:50.426Z,99066.59
2022-08-22T21:24:17.169Z,99066.84
2022-08-22T21:26:50.458Z,99071.72
2022-08-22T21:29:17.026Z,99060.38
2022-08-22T21:34:48.794Z,99061.44
2022-08-22T21:40:15.798Z,99048.50
2022-08-22T21:43:03.433Z,99060.13
2022-08-22T21:45:41.503Z,99030.34
2022-08-22T21:57:33.633Z,99042.53
2022-08-22T22:00:00.445Z,99047.66
2022-08-22T22:05:33.132Z,99039.28
2022-08-22T22:07:59.949Z,99051.19
2022-08-22T22:10:26.841Z,99039.28
2022-08-22T22:12:55.407Z,99030.38
2022-08-22T22:15:25.394Z,99033.06
2022-08-22T22:17:52.263Z,99047.94
2022-08-22T22:20:20.741Z,99051.16
2022-08-22T22:22:47.555Z,99050.09
2022-08-22T22:25:39.651Z,99048.75
2022-08-22T22:28:05.008Z,99049.31
2022-08-22T22:30:31.716Z,99047.41
2022-08-22T22:32:58.322Z,99046.84
2022-08-22T22:35:24.950Z,99043.06
2022-08-22T22:37:51.864Z,99038.47
2022-08-22T22:40:18.715Z,99046.84
2022-08-22T22:42:45.401Z,99042.25
2022-08-22T22:45:12.015Z,99038.75
2022-08-22T22:47:38.793Z,99036.84
2022-08-22T22:50:06.307Z,99025.22
2022-08-22T22:52:33.036Z,99024.94
2022-08-22T22:55:07.729Z,99013.88
2022-08-22T22:57:42.459Z,99016.56
2022-08-22T23:00:11.230Z,99015.22
2022-08-22T23:02:37.863Z,99011.44
2022-08-22T23:05:05.323Z,99006.56
2022-08-22T23:07:33.881Z,99014.41
2022-08-22T23:10:01.522Z,99028.19
2022-08-22T23:12:29.068Z,99014.97
2022-08-22T23:14:55.671Z,99023.03
2022-08-22T23:17:22.301Z,99022.75
2022-08-22T23:19:50.732Z,99026.84
2022-08-22T23:22:17.609Z,99031.94
2022-08-22T23:24:44.305Z,99045.22
2022-08-22T23:29:59.887Z,99051.72
2022-08-22T23:32:26.536Z,99053.88
2022-08-22T23:34:53.595Z,99047.38
2022-08-22T23:37:21.739Z,99050.63
2022-08-22T23:39:49.108Z,99049.28
2022-08-22T23:42:18.050Z,99044.38
2022-08-22T23:45:03.856Z,99047.91
2022-08-22T23:47:30.599Z,99049.50
2022-08-22T23:49:57.174Z,99053.28
2022-08-22T23:52:23.827Z,99054.88
2022-08-22T23:54:54.575Z,99045.69
2022-08-22T23:57:26.317Z,99049.44
2022-08-22T23:59:57.820Z,99051.09
